sensor_id;sensor_type;location;lat;lon;timestamp;P1;durP1;ratioP1;P2;durP2;ratioP2
42096;SDS011;27754;45.414;11.084;2022-12-01T00:01:27;25.15;;;15.13;;
42096;SDS011;27754;45.414;11.084;2022-12-01T00:03:55;24.63;;;15.43;;
42096;SDS011;27754;45.414;11.084;2022-12-01T00:06:22;23.42;;;15.77;;
42096;SDS011;27754;45.414;11.084;2022-12-01T00:08:49;28.48;;;15.82;;
42096;SDS011;27754;45.414;11.084;2022-12-01T00:11:40;23.58;;;14.48;;
42096;SDS011;27754;45.414;11.084;2022-12-01T00:14:07;24.10;;;14.63;;
42096;SDS011;27754;45.414;11.084;2022-12-01T00:16:34;24.35;;;14.32;;
42096;SDS011;27754;45.414;11.084;2022-12-01T00:19:01;24.02;;;15.43;;
42096;SDS011;27754;45.414;11.084;2022-12-01T00:21:28;25.00;;;14.82;;
42096;SDS011;27754;45.414;11.084;2022-12-01T00:23:55;25.05;;;15.15;;
42096;SDS011;27754;45.414;11.084;2022-12-01T00:26:24;28.25;;;15.40;;
42096;SDS011;27754;45.414;11.084;2022-12-01T00:28:53;24.33;;;14.65;;
42096;SDS011;27754;45.414;11.084;2022-12-01T00:31:23;24.25;;;15.52;;
42096;SDS011;27754;45.414;11.084;2022-12-01T00:33:51;26.63;;;15.32;;
42096;SDS011;27754;45.414;11.084;2022-12-01T00:36:18;23.73;;;15.48;;
42096;SDS011;27754;45.414;11.084;2022-12-01T00:38:45;27.38;;;14.57;;
42096;SDS011;27754;45.414;11.084;2022-12-01T00:41:12;24.35;;;15.57;;
42096;SDS011;27754;45.414;11.084;2022-12-01T00:43:39;25.90;;;15.27;;
42096;SDS011;27754;45.414;11.084;2022-12-01T00:46:06;24.83;;;15.57;;
42096;SDS011;27754;45.414;11.084;2022-12-01T00:48:34;24.98;;;14.68;;
42096;SDS011;27754;45.414;11.084;2022-12-01T00:51:01;25.98;;;15.25;;
42096;SDS011;27754;45.414;11.084;2022-12-01T00:53:28;23.60;;;15.07;;
42096;SDS011;27754;45.414;11.084;2022-12-01T00:55:56;25.77;;;14.68;;
42096;SDS011;27754;45.414;11.084;2022-12-01T00:58:23;22.35;;;14.80;;
42096;SDS011;27754;45.414;11.084;2022-12-01T01:00:56;26.77;;;16.13;;
42096;SDS011;27754;45.414;11.084;2022-12-01T01:03:25;24.92;;;14.90;;
42096;SDS011;27754;45.414;11.084;2022-12-01T01:05:53;27.50;;;14.93;;
42096;SDS011;27754;45.414;11.084;2022-12-01T01:08:20;23.52;;;15.57;;
42096;SDS011;27754;45.414;11.084;2022-12-01T01:10:47;23.60;;;14.88;;
42096;SDS011;27754;45.414;11.084;2022-12-01T01:13:14;28.00;;;15.68;;
42096;SDS011;27754;45.414;11.084;2022-12-01T01:15:41;26.27;;;15.55;;
42096;SDS011;27754;45.414;11.084;2022-12-01T01:18:08;24.45;;;15.90;;
42096;SDS011;27754;45.414;11.084;2022-12-01T01:20:36;24.98;;;15.93;;
42096;SDS011;27754;45.414;11.084;2022-12-01T01:23:03;25.75;;;17.10;;
42096;SDS011;27754;45.414;11.084;2022-12-01T01:25:31;25.17;;;15.27;;
42096;SDS011;27754;45.414;11.084;2022-12-01T01:27:58;26.35;;;16.17;;
42096;SDS011;27754;45.414;11.084;2022-12-01T01:30:25;30.38;;;16.77;;
42096;SDS011;27754;45.414;11.084;2022-12-01T01:32:52;28.35;;;17.58;;
42096;SDS011;27754;45.414;11.084;2022-12-01T01:35:19;29.30;;;18.60;;
42096;SDS011;27754;45.414;11.084;2022-12-01T01:37:46;31.70;;;19.17;;
42096;SDS011;27754;45.414;11.084;2022-12-01T01:40:15;28.50;;;16.60;;
42096;SDS011;27754;45.414;11.084;2022-12-01T01:42:42;26.77;;;16.38;;
42096;SDS011;27754;45.414;11.084;2022-12-01T01:45:43;27.67;;;17.25;;
42096;SDS011;27754;45.414;11.084;2022-12-01T01:48:03;33.20;;;17.73;;
42096;SDS011;27754;45.414;11.084;2022-12-01T01:50:30;28.17;;;17.13;;
42096;SDS011;27754;45.414;11.084;2022-12-01T01:52:58;27.33;;;17.83;;
42096;SDS011;27754;45.414;11.084;2022-12-01T01:55:28;30.02;;;17.77;;
42096;SDS011;27754;45.414;11.084;2022-12-01T01:57:57;30.55;;;18.10;;
42096;SDS011;27754;45.414;11.084;2022-12-01T02:00:24;26.75;;;17.48;;
42096;SDS011;27754;45.414;11.084;2022-12-01T02:02:51;31.35;;;17.95;;
42096;SDS011;27754;45.414;11.084;2022-12-01T02:05:22;27.63;;;16.27;;
42096;SDS011;27754;45.414;11.084;2022-12-01T02:07:54;27.88;;;16.95;;
42096;SDS011;27754;45.414;11.084;2022-12-01T02:10:27;28.48;;;17.45;;
42096;SDS011;27754;45.414;11.084;2022-12-01T02:13:15;26.83;;;16.48;;
42096;SDS011;27754;45.414;11.084;2022-12-01T02:16:15;27.20;;;17.02;;
42096;SDS011;27754;45.414;11.084;2022-12-01T02:37:54;30.92;;;17.73;;
42096;SDS011;27754;45.414;11.084;2022-12-01T02:46:21;28.38;;;16.15;;
42096;SDS011;27754;45.414;11.084;2022-12-01T02:48:55;24.73;;;15.73;;
42096;SDS011;27754;45.414;11.084;2022-12-01T02:51:26;29.48;;;15.23;;
42096;SDS011;27754;45.414;11.084;2022-12-01T02:53:56;35.80;;;16.38;;
42096;SDS011;27754;45.414;11.084;2022-12-01T02:56:25;31.50;;;15.50;;
42096;SDS011;27754;45.414;11.084;2022-12-01T02:58:52;32.33;;;16.30;;
42096;SDS011;27754;45.414;11.084;2022-12-01T03:04:23;26.27;;;14.55;;
42096;SDS011;27754;45.414;11.084;2022-12-01T03:07:41;26.92;;;15.05;;
42096;SDS011;27754;45.414;11.084;2022-12-01T03:10:09;23.10;;;13.30;;
42096;SDS011;27754;45.414;11.084;2022-12-01T03:15:48;28.65;;;13.63;;
42096;SDS011;27754;45.414;11.084;2022-12-01T03:18:49;22.50;;;14.15;;
42096;SDS011;27754;45.414;11.084;2022-12-01T03:21:32;24.52;;;14.20;;
42096;SDS011;27754;45.414;11.084;2022-12-01T03:24:19;24.08;;;14.38;;
42096;SDS011;27754;45.414;11.084;2022-12-01T03:26:48;21.25;;;11.98;;
42096;SDS011;27754;45.414;11.084;2022-12-01T03:29:21;20.92;;;13.40;;
42096;SDS011;27754;45.414;11.084;2022-12-01T03:31:54;23.77;;;13.57;;
42096;SDS011;27754;45.414;11.084;2022-12-01T03:34:35;24.45;;;14.63;;
42096;SDS011;27754;45.414;11.084;2022-12-01T03:37:28;19.92;;;12.73;;
42096;SDS011;27754;45.414;11.084;2022-12-01T03:40:05;24.83;;;13.18;;
42096;SDS011;27754;45.414;11.084;2022-12-01T03:42:42;18.08;;;12.68;;
42096;SDS011;27754;45.414;11.084;2022-12-01T03:45:39;20.05;;;12.30;;
42096;SDS011;27754;45.414;11.084;2022-12-01T03:48:16;20.67;;;12.07;;
42096;SDS011;27754;45.414;11.084;2022-12-01T03:50:47;19.23;;;11.48;;
42096;SDS011;27754;45.414;11.084;2022-12-01T03:53:54;17.23;;;10.98;;
42096;SDS011;27754;45.414;11.084;2022-12-01T03:56:35;19.38;;;11.77;;
42096;SDS011;27754;45.414;11.084;2022-12-01T03:59:09;24.70;;;12.30;;
42096;SDS011;27754;45.414;11.084;2022-12-01T04:01:37;24.73;;;12.20;;
42096;SDS011;27754;45.414;11.084;2022-12-01T04:04:06;21.00;;;12.05;;
42096;SDS011;27754;45.414;11.084;2022-12-01T04:06:35;23.20;;;12.63;;
42096;SDS011;27754;45.414;11.084;2022-12-01T04:09:02;19.67;;;11.63;;
42096;SDS011;27754;45.414;11.084;2022-12-01T04:11:29;21.58;;;12.90;;
42096;SDS011;27754;45.414;11.084;2022-12-01T04:14:15;18.88;;;11.80;;
42096;SDS011;27754;45.414;11.084;2022-12-01T04:16:42;18.17;;;11.98;;
42096;SDS011;27754;45.414;11.084;2022-12-01T04:19:09;16.90;;;11.07;;
42096;SDS011;27754;45.414;11.084;2022-12-01T04:21:36;18.38;;;10.63;;
42096;SDS011;27754;45.414;11.084;2022-12-01T04:24:03;19.08;;;11.40;;
42096;SDS011;27754;45.414;11.084;2022-12-01T04:26:31;17.95;;;11.88;;
42096;SDS011;27754;45.414;11.084;2022-12-01T04:29:01;22.17;;;10.70;;
42096;SDS011;27754;45.414;11.084;2022-12-01T04:31:30;15.15;;;9.18;;
42096;SDS011;27754;45.414;11.084;2022-12-01T04:33:57;14.45;;;9.80;;
42096;SDS011;27754;45.414;11.084;2022-12-01T04:36:24;15.38;;;10.10;;
42096;SDS011;27754;45.414;11.084;2022-12-01T04:38:52;17.63;;;10.60;;
42096;SDS011;27754;45.414;11.084;2022-12-01T04:41:18;21.85;;;13.57;;
42096;SDS011;27754;45.414;11.084;2022-12-01T04:43:45;19.70;;;11.32;;
42096;SDS011;27754;45.414;11.084;2022-12-01T04:46:12;16.65;;;10.30;;
42096;SDS011;27754;45.414;11.084;2022-12-01T04:48:40;20.63;;;10.82;;
42096;SDS011;27754;45.414;11.084;2022-12-01T04:51:08;17.20;;;11.25;;
42096;SDS011;27754;45.414;11.084;2022-12-01T04:53:35;15.95;;;10.20;;
42096;SDS011;27754;45.414;11.084;2022-12-01T04:56:02;17.15;;;9.68;;
42096;SDS011;27754;45.414;11.084;2022-12-01T04:58:30;15.35;;;9.65;;
42096;SDS011;27754;45.414;11.084;2022-12-01T05:01:06;17.20;;;10.35;;
42096;SDS011;27754;45.414;11.084;2022-12-01T05:03:37;16.52;;;10.63;;
42096;SDS011;27754;45.414;11.084;2022-12-01T05:06:06;17.15;;;10.63;;
42096;SDS011;27754;45.414;11.084;2022-12-01T05:08:38;17.55;;;10.30;;
42096;SDS011;27754;45.414;11.084;2022-12-01T05:11:06;15.82;;;10.07;;
42096;SDS011;27754;45.414;11.084;2022-12-01T05:13:35;16.85;;;10.13;;
42096;SDS011;27754;45.414;11.084;2022-12-01T05:16:05;14.45;;;9.43;;
42096;SDS011;27754;45.414;11.084;2022-12-01T05:18:32;18.40;;;9.18;;
42096;SDS011;27754;45.414;11.084;2022-12-01T05:21:00;19.48;;;8.88;;
42096;SDS011;27754;45.414;11.084;2022-12-01T05:23:30;17.30;;;10.23;;
42096;SDS011;27754;45.414;11.084;2022-12-01T05:25:59;17.17;;;10.10;;
42096;SDS011;27754;45.414;11.084;2022-12-01T05:28:26;17.50;;;9.82;;
42096;SDS011;27754;45.414;11.084;2022-12-01T05:30:54;17.27;;;9.95;;
42096;SDS011;27754;45.414;11.084;2022-12-01T05:33:22;15.43;;;9.27;;
42096;SDS011;27754;45.414;11.084;2022-12-01T05:35:50;15.80;;;9.60;;
42096;SDS011;27754;45.414;11.084;2022-12-01T05:38:17;18.45;;;9.73;;
42096;SDS011;27754;45.414;11.084;2022-12-01T05:40:48;20.80;;;10.23;;
42096;SDS011;27754;45.414;11.084;2022-12-01T05:43:19;18.97;;;9.70;;
42096;SDS011;27754;45.414;11.084;2022-12-01T05:45:54;19.40;;;9.88;;
42096;SDS011;27754;45.414;11.084;2022-12-01T05:48:22;17.40;;;9.90;;
42096;SDS011;27754;45.414;11.084;2022-12-01T05:50:49;15.25;;;8.35;;
42096;SDS011;27754;45.414;11.084;2022-12-01T05:53:17;16.30;;;8.85;;
42096;SDS011;27754;45.414;11.084;2022-12-01T05:55:44;12.98;;;8.10;;
42096;SDS011;27754;45.414;11.084;2022-12-01T05:58:11;13.73;;;8.13;;
42096;SDS011;27754;45.414;11.084;2022-12-01T06:00:38;16.35;;;8.55;;
42096;SDS011;27754;45.414;11.084;2022-12-01T06:03:11;19.48;;;8.93;;
42096;SDS011;27754;45.414;11.084;2022-12-01T06:05:38;17.05;;;9.07;;
42096;SDS011;27754;45.414;11.084;2022-12-01T06:08:06;19.48;;;9.02;;
42096;SDS011;27754;45.414;11.084;2022-12-01T06:10:33;15.98;;;9.13;;
42096;SDS011;27754;45.414;11.084;2022-12-01T06:13:00;13.30;;;8.73;;
42096;SDS011;27754;45.414;11.084;2022-12-01T06:15:27;17.67;;;9.00;;
42096;SDS011;27754;45.414;11.084;2022-12-01T06:17:57;18.52;;;8.95;;
42096;SDS011;27754;45.414;11.084;2022-12-01T06:20:24;16.08;;;9.02;;
42096;SDS011;27754;45.414;11.084;2022-12-01T06:22:51;16.63;;;8.65;;
42096;SDS011;27754;45.414;11.084;2022-12-01T06:25:19;16.35;;;8.15;;
42096;SDS011;27754;45.414;11.084;2022-12-01T06:27:46;19.85;;;9.05;;
42096;SDS011;27754;45.414;11.084;2022-12-01T06:30:13;15.20;;;8.65;;
42096;SDS011;27754;45.414;11.084;2022-12-01T06:32:40;15.88;;;8.73;;
42096;SDS011;27754;45.414;11.084;2022-12-01T06:35:07;23.05;;;10.52;;
42096;SDS011;27754;45.414;11.084;2022-12-01T06:37:34;16.92;;;8.43;;
42096;SDS011;27754;45.414;11.084;2022-12-01T06:40:01;15.85;;;8.48;;
42096;SDS011;27754;45.414;11.084;2022-12-01T06:42:28;20.63;;;8.18;;
42096;SDS011;27754;45.414;11.084;2022-12-01T06:44:56;17.95;;;9.35;;
42096;SDS011;27754;45.414;11.084;2022-12-01T06:47:23;20.30;;;9.70;;
42096;SDS011;27754;45.414;11.084;2022-12-01T06:49:50;16.45;;;8.73;;
42096;SDS011;27754;45.414;11.084;2022-12-01T06:52:17;23.23;;;9.65;;
42096;SDS011;27754;45.414;11.084;2022-12-01T06:54:45;23.05;;;8.90;;
42096;SDS011;27754;45.414;11.084;2022-12-01T06:57:12;21.88;;;9.13;;
42096;SDS011;27754;45.414;11.084;2022-12-01T06:59:39;17.40;;;9.30;;
42096;SDS011;27754;45.414;11.084;2022-12-01T07:02:08;20.60;;;9.00;;
42096;SDS011;27754;45.414;11.084;2022-12-01T07:04:38;29.30;;;9.60;;
42096;SDS011;27754;45.414;11.084;2022-12-01T07:07:05;25.63;;;9.73;;
42096;SDS011;27754;45.414;11.084;2022-12-01T07:09:32;22.75;;;9.20;;
42096;SDS011;27754;45.414;11.084;2022-12-01T07:11:59;18.70;;;8.88;;
42096;SDS011;27754;45.414;11.084;2022-12-01T07:14:26;16.95;;;8.63;;
42096;SDS011;27754;45.414;11.084;2022-12-01T07:16:53;25.90;;;9.48;;
42096;SDS011;27754;45.414;11.084;2022-12-01T07:19:20;25.25;;;9.73;;
42096;SDS011;27754;45.414;11.084;2022-12-01T07:21:47;26.05;;;10.68;;
42096;SDS011;27754;45.414;11.084;2022-12-01T07:24:14;33.22;;;10.32;;
42096;SDS011;27754;45.414;11.084;2022-12-01T07:26:41;28.40;;;11.35;;
42096;SDS011;27754;45.414;11.084;2022-12-01T07:29:09;85.78;;;43.95;;
42096;SDS011;27754;45.414;11.084;2022-12-01T07:31:36;61.33;;;33.20;;
42096;SDS011;27754;45.414;11.084;2022-12-01T07:34:03;31.88;;;12.70;;
42096;SDS011;27754;45.414;11.084;2022-12-01T07:36:31;37.78;;;10.93;;
42096;SDS011;27754;45.414;11.084;2022-12-01T07:38:58;27.25;;;10.45;;
42096;SDS011;27754;45.414;11.084;2022-12-01T07:41:25;32.88;;;10.00;;
42096;SDS011;27754;45.414;11.084;2022-12-01T07:43:53;31.63;;;11.00;;
42096;SDS011;27754;45.414;11.084;2022-12-01T07:46:21;43.95;;;16.38;;
42096;SDS011;27754;45.414;11.084;2022-12-01T07:48:50;33.83;;;17.60;;
42096;SDS011;27754;45.414;11.084;2022-12-01T07:51:18;32.72;;;10.25;;
42096;SDS011;27754;45.414;11.084;2022-12-01T07:53:47;28.65;;;10.50;;
42096;SDS011;27754;45.414;11.084;2022-12-01T07:56:15;32.17;;;16.48;;
42096;SDS011;27754;45.414;11.084;2022-12-01T07:58:43;41.53;;;21.58;;
42096;SDS011;27754;45.414;11.084;2022-12-01T08:01:12;47.13;;;20.83;;
42096;SDS011;27754;45.414;11.084;2022-12-01T08:03:41;32.30;;;13.85;;
42096;SDS011;27754;45.414;11.084;2022-12-01T08:06:08;33.72;;;16.48;;
42096;SDS011;27754;45.414;11.084;2022-12-01T08:08:36;27.83;;;13.98;;
42096;SDS011;27754;45.414;11.084;2022-12-01T08:11:05;20.27;;;9.85;;
42096;SDS011;27754;45.414;11.084;2022-12-01T08:13:35;19.30;;;9.63;;
42096;SDS011;27754;45.414;11.084;2022-12-01T08:16:03;21.80;;;9.40;;
42096;SDS011;27754;45.414;11.084;2022-12-01T08:18:34;22.92;;;10.75;;
42096;SDS011;27754;45.414;11.084;2022-12-01T08:21:03;16.80;;;9.93;;
42096;SDS011;27754;45.414;11.084;2022-12-01T08:23:31;23.35;;;10.40;;
42096;SDS011;27754;45.414;11.084;2022-12-01T08:26:05;17.42;;;9.05;;
42096;SDS011;27754;45.414;11.084;2022-12-01T08:28:36;14.48;;;9.38;;
42096;SDS011;27754;45.414;11.084;2022-12-01T08:31:10;16.00;;;8.00;;
42096;SDS011;27754;45.414;11.084;2022-12-01T08:33:42;20.23;;;9.02;;
42096;SDS011;27754;45.414;11.084;2022-12-01T08:36:09;14.93;;;8.82;;
42096;SDS011;27754;45.414;11.084;2022-12-01T08:38:36;17.85;;;8.73;;
42096;SDS011;27754;45.414;11.084;2022-12-01T08:41:04;15.63;;;8.43;;
42096;SDS011;27754;45.414;11.084;2022-12-01T08:43:33;16.27;;;8.13;;
42096;SDS011;27754;45.414;11.084;2022-12-01T08:46:26;11.90;;;6.65;;
42096;SDS011;27754;45.414;11.084;2022-12-01T08:48:57;15.15;;;7.80;;
42096;SDS011;27754;45.414;11.084;2022-12-01T08:51:25;12.13;;;5.72;;
42096;SDS011;27754;45.414;11.084;2022-12-01T08:53:53;20.08;;;8.18;;
42096;SDS011;27754;45.414;11.084;2022-12-01T08:58:56;10.07;;;5.07;;
42096;SDS011;27754;45.414;11.084;2022-12-01T09:01:26;11.10;;;5.10;;
42096;SDS011;27754;45.414;11.084;2022-12-01T09:03:55;7.68;;;3.90;;
42096;SDS011;27754;45.414;11.084;2022-12-01T09:06:37;6.35;;;3.60;;
42096;SDS011;27754;45.414;11.084;2022-12-01T09:09:08;7.38;;;3.90;;
42096;SDS011;27754;45.414;11.084;2022-12-01T09:11:37;6.40;;;4.18;;
42096;SDS011;27754;45.414;11.084;2022-12-01T09:14:05;7.18;;;3.60;;
42096;SDS011;27754;45.414;11.084;2022-12-01T09:16:32;7.28;;;3.75;;
42096;SDS011;27754;45.414;11.084;2022-12-01T09:18:59;11.02;;;6.45;;
42096;SDS011;27754;45.414;11.084;2022-12-01T09:21:26;6.63;;;3.83;;
42096;SDS011;27754;45.414;11.084;2022-12-01T09:23:58;9.20;;;4.65;;
42096;SDS011;27754;45.414;11.084;2022-12-01T09:26:26;7.30;;;4.43;;
42096;SDS011;27754;45.414;11.084;2022-12-01T09:28:56;4.85;;;2.92;;
42096;SDS011;27754;45.414;11.084;2022-12-01T09:31:24;14.43;;;8.77;;
42096;SDS011;27754;45.414;11.084;2022-12-01T09:33:55;8.70;;;6.47;;
42096;SDS011;27754;45.414;11.084;2022-12-01T09:36:23;5.38;;;3.20;;
42096;SDS011;27754;45.414;11.084;2022-12-01T09:38:51;4.20;;;2.75;;
42096;SDS011;27754;45.414;11.084;2022-12-01T09:44:39;4.60;;;3.00;;
42096;SDS011;27754;45.414;11.084;2022-12-01T09:52:33;8.38;;;3.60;;
42096;SDS011;27754;45.414;11.084;2022-12-01T09:55:10;4.47;;;2.97;;
42096;SDS011;27754;45.414;11.084;2022-12-01T09:57:38;5.07;;;2.88;;
42096;SDS011;27754;45.414;11.084;2022-12-01T10:00:15;4.13;;;2.53;;
42096;SDS011;27754;45.414;11.084;2022-12-01T10:03:11;5.03;;;3.22;;
42096;SDS011;27754;45.414;11.084;2022-12-01T10:05:46;8.00;;;4.78;;
42096;SDS011;27754;45.414;11.084;2022-12-01T10:08:41;6.22;;;4.32;;
42096;SDS011;27754;45.414;11.084;2022-12-01T10:11:35;6.50;;;4.15;;
42096;SDS011;27754;45.414;11.084;2022-12-01T10:14:09;6.68;;;4.00;;
42096;SDS011;27754;45.414;11.084;2022-12-01T10:19:55;10.95;;;5.63;;
42096;SDS011;27754;45.414;11.084;2022-12-01T10:22:36;9.50;;;5.32;;
42096;SDS011;27754;45.414;11.084;2022-12-01T10:25:30;11.27;;;5.85;;
42096;SDS011;27754;45.414;11.084;2022-12-01T10:28:35;8.15;;;5.47;;
42096;SDS011;27754;45.414;11.084;2022-12-01T10:31:29;10.60;;;5.40;;
42096;SDS011;27754;45.414;11.084;2022-12-01T10:34:19;7.70;;;5.60;;
42096;SDS011;27754;45.414;11.084;2022-12-01T10:36:49;7.47;;;5.15;;
42096;SDS011;27754;45.414;11.084;2022-12-01T10:39:17;11.00;;;5.13;;
42096;SDS011;27754;45.414;11.084;2022-12-01T10:42:04;11.85;;;5.78;;
42096;SDS011;27754;45.414;11.084;2022-12-01T10:44:35;9.45;;;6.03;;
42096;SDS011;27754;45.414;11.084;2022-12-01T10:47:03;9.07;;;5.75;;
42096;SDS011;27754;45.414;11.084;2022-12-01T10:49:42;9.30;;;5.72;;
42096;SDS011;27754;45.414;11.084;2022-12-01T10:52:26;8.13;;;5.60;;
42096;SDS011;27754;45.414;11.084;2022-12-01T10:57:55;6.63;;;4.57;;
42096;SDS011;27754;45.414;11.084;2022-12-01T11:00:33;8.38;;;5.38;;
42096;SDS011;27754;45.414;11.084;2022-12-01T11:03:28;7.85;;;5.07;;
42096;SDS011;27754;45.414;11.084;2022-12-01T11:05:58;7.70;;;5.38;;
42096;SDS011;27754;45.414;11.084;2022-12-01T11:08:32;9.50;;;6.05;;
42096;SDS011;27754;45.414;11.084;2022-12-01T11:11:02;11.32;;;6.40;;
42096;SDS011;27754;45.414;11.084;2022-12-01T11:13:30;8.75;;;5.43;;
42096;SDS011;27754;45.414;11.084;2022-12-01T11:16:02;13.55;;;6.53;;
42096;SDS011;27754;45.414;11.084;2022-12-01T11:21:03;9.82;;;6.43;;
42096;SDS011;27754;45.414;11.084;2022-12-01T11:23:37;8.95;;;6.22;;
42096;SDS011;27754;45.414;11.084;2022-12-01T11:26:16;9.50;;;6.28;;
42096;SDS011;27754;45.414;11.084;2022-12-01T11:28:57;9.85;;;5.90;;
42096;SDS011;27754;45.414;11.084;2022-12-01T11:31:42;9.35;;;5.95;;
42096;SDS011;27754;45.414;11.084;2022-12-01T11:34:17;9.68;;;5.32;;
42096;SDS011;27754;45.414;11.084;2022-12-01T11:36:50;11.07;;;6.28;;
42096;SDS011;27754;45.414;11.084;2022-12-01T11:39:32;9.68;;;6.82;;
42096;SDS011;27754;45.414;11.084;2022-12-01T11:42:03;7.53;;;5.22;;
42096;SDS011;27754;45.414;11.084;2022-12-01T11:44:32;8.68;;;5.88;;
42096;SDS011;27754;45.414;11.084;2022-12-01T11:47:22;8.77;;;5.65;;
42096;SDS011;27754;45.414;11.084;2022-12-01T11:49:52;7.95;;;5.32;;
42096;SDS011;27754;45.414;11.084;2022-12-01T11:52:25;8.75;;;5.47;;
42096;SDS011;27754;45.414;11.084;2022-12-01T11:57:42;9.43;;;5.13;;
42096;SDS011;27754;45.414;11.084;2022-12-01T12:00:14;9.60;;;5.90;;
42096;SDS011;27754;45.414;11.084;2022-12-01T12:08:14;10.02;;;5.57;;
42096;SDS011;27754;45.414;11.084;2022-12-01T12:13:51;9.00;;;5.82;;
42096;SDS011;27754;45.414;11.084;2022-12-01T12:22:27;8.27;;;5.90;;
42096;SDS011;27754;45.414;11.084;2022-12-01T12:30:44;9.70;;;6.50;;
42096;SDS011;27754;45.414;11.084;2022-12-01T12:33:24;13.52;;;10.48;;
42096;SDS011;27754;45.414;11.084;2022-12-01T12:39:05;11.35;;;6.97;;
42096;SDS011;27754;45.414;11.084;2022-12-01T12:52:42;9.65;;;5.95;;
42096;SDS011;27754;45.414;11.084;2022-12-01T12:55:31;11.85;;;8.45;;
42096;SDS011;27754;45.414;11.084;2022-12-01T13:00:42;7.68;;;5.50;;
42096;SDS011;27754;45.414;11.084;2022-12-01T13:06:08;9.30;;;6.50;;
42096;SDS011;27754;45.414;11.084;2022-12-01T13:09:21;8.63;;;5.97;;
42096;SDS011;27754;45.414;11.084;2022-12-01T13:11:47;9.50;;;6.22;;
42096;SDS011;27754;45.414;11.084;2022-12-01T13:14:30;9.25;;;6.30;;
42096;SDS011;27754;45.414;11.084;2022-12-01T13:17:27;10.40;;;6.07;;
42096;SDS011;27754;45.414;11.084;2022-12-01T13:19:56;10.38;;;6.55;;
42096;SDS011;27754;45.414;11.084;2022-12-01T13:22:25;9.23;;;6.63;;
42096;SDS011;27754;45.414;11.084;2022-12-01T13:24:56;11.48;;;6.45;;
42096;SDS011;27754;45.414;11.084;2022-12-01T13:27:24;8.55;;;6.00;;
42096;SDS011;27754;45.414;11.084;2022-12-01T13:29:56;11.77;;;6.95;;
42096;SDS011;27754;45.414;11.084;2022-12-01T13:32:31;8.65;;;5.93;;
42096;SDS011;27754;45.414;11.084;2022-12-01T13:35:04;12.90;;;7.63;;
42096;SDS011;27754;45.414;11.084;2022-12-01T13:37:46;9.85;;;6.63;;
42096;SDS011;27754;45.414;11.084;2022-12-01T13:40:23;10.07;;;6.70;;
42096;SDS011;27754;45.414;11.084;2022-12-01T13:42:58;9.85;;;6.20;;
42096;SDS011;27754;45.414;11.084;2022-12-01T13:45:36;9.45;;;6.00;;
42096;SDS011;27754;45.414;11.084;2022-12-01T13:48:05;8.00;;;5.35;;
42096;SDS011;27754;45.414;11.084;2022-12-01T13:51:13;11.63;;;5.85;;
42096;SDS011;27754;45.414;11.084;2022-12-01T14:02:13;12.48;;;8.25;;
42096;SDS011;27754;45.414;11.084;2022-12-01T14:04:45;9.85;;;5.78;;
42096;SDS011;27754;45.414;11.084;2022-12-01T14:09:48;10.55;;;6.18;;
42096;SDS011;27754;45.414;11.084;2022-12-01T14:12:23;7.88;;;5.38;;
42096;SDS011;27754;45.414;11.084;2022-12-01T14:15:00;11.82;;;7.55;;
42096;SDS011;27754;45.414;11.084;2022-12-01T14:17:47;12.60;;;8.25;;
42096;SDS011;27754;45.414;11.084;2022-12-01T14:20:25;9.07;;;6.85;;
42096;SDS011;27754;45.414;11.084;2022-12-01T14:23:04;13.32;;;6.47;;
42096;SDS011;27754;45.414;11.084;2022-12-01T14:25:57;9.80;;;5.78;;
42096;SDS011;27754;45.414;11.084;2022-12-01T14:34:07;11.30;;;7.25;;
42096;SDS011;27754;45.414;11.084;2022-12-01T14:36:48;10.15;;;5.90;;
42096;SDS011;27754;45.414;11.084;2022-12-01T14:39:19;9.68;;;5.90;;
42096;SDS011;27754;45.414;11.084;2022-12-01T14:45:10;8.43;;;5.93;;
42096;SDS011;27754;45.414;11.084;2022-12-01T14:47:43;10.05;;;5.18;;
42096;SDS011;27754;45.414;11.084;2022-12-01T14:50:19;12.82;;;5.45;;
42096;SDS011;27754;45.414;11.084;2022-12-01T14:52:56;10.00;;;6.13;;
42096;SDS011;27754;45.414;11.084;2022-12-01T14:55:34;11.10;;;6.10;;
42096;SDS011;27754;45.414;11.084;2022-12-01T14:58:06;12.82;;;7.53;;
42096;SDS011;27754;45.414;11.084;2022-12-01T15:01:16;11.23;;;7.57;;
42096;SDS011;27754;45.414;11.084;2022-12-01T15:06:06;14.70;;;7.80;;
42096;SDS011;27754;45.414;11.084;2022-12-01T15:08:36;10.98;;;6.15;;
42096;SDS011;27754;45.414;11.084;2022-12-01T15:11:24;9.27;;;6.15;;
42096;SDS011;27754;45.414;11.084;2022-12-01T15:13:55;12.13;;;6.95;;
42096;SDS011;27754;45.414;11.084;2022-12-01T15:16:24;10.30;;;6.18;;
42096;SDS011;27754;45.414;11.084;2022-12-01T15:18:54;13.13;;;7.95;;
42096;SDS011;27754;45.414;11.084;2022-12-01T15:21:25;20.92;;;12.65;;
42096;SDS011;27754;45.414;11.084;2022-12-01T15:23:55;18.65;;;10.68;;
42096;SDS011;27754;45.414;11.084;2022-12-01T15:26:30;32.65;;;23.50;;
42096;SDS011;27754;45.414;11.084;2022-12-01T15:31:40;11.55;;;7.35;;
42096;SDS011;27754;45.414;11.084;2022-12-01T15:34:19;12.25;;;7.05;;
42096;SDS011;27754;45.414;11.084;2022-12-01T15:36:49;10.30;;;6.18;;
42096;SDS011;27754;45.414;11.084;2022-12-01T15:39:19;12.13;;;6.45;;
42096;SDS011;27754;45.414;11.084;2022-12-01T15:41:58;10.55;;;6.47;;
42096;SDS011;27754;45.414;11.084;2022-12-01T15:44:28;10.95;;;6.68;;
42096;SDS011;27754;45.414;11.084;2022-12-01T15:46:58;10.50;;;6.88;;
42096;SDS011;27754;45.414;11.084;2022-12-01T15:49:48;10.90;;;6.82;;
42096;SDS011;27754;45.414;11.084;2022-12-01T15:52:15;10.93;;;6.90;;
42096;SDS011;27754;45.414;11.084;2022-12-01T15:54:45;12.57;;;7.25;;
42096;SDS011;27754;45.414;11.084;2022-12-01T15:57:18;14.23;;;7.50;;
42096;SDS011;27754;45.414;11.084;2022-12-01T15:59:50;14.68;;;8.10;;
42096;SDS011;27754;45.414;11.084;2022-12-01T16:04:58;12.88;;;7.18;;
42096;SDS011;27754;45.414;11.084;2022-12-01T16:07:29;13.38;;;7.82;;
42096;SDS011;27754;45.414;11.084;2022-12-01T16:10:25;12.07;;;7.22;;
42096;SDS011;27754;45.414;11.084;2022-12-01T16:16:20;15.68;;;8.00;;
42096;SDS011;27754;45.414;11.084;2022-12-01T16:18:56;14.77;;;8.02;;
42096;SDS011;27754;45.414;11.084;2022-12-01T16:22:13;11.85;;;8.35;;
42096;SDS011;27754;45.414;11.084;2022-12-01T16:24:26;17.50;;;8.75;;
42096;SDS011;27754;45.414;11.084;2022-12-01T16:27:05;12.82;;;8.10;;
42096;SDS011;27754;45.414;11.084;2022-12-01T16:32:20;16.38;;;8.95;;
42096;SDS011;27754;45.414;11.084;2022-12-01T16:34:50;15.32;;;8.80;;
42096;SDS011;27754;45.414;11.084;2022-12-01T16:37:18;22.23;;;9.38;;
42096;SDS011;27754;45.414;11.084;2022-12-01T16:39:46;16.48;;;10.00;;
42096;SDS011;27754;45.414;11.084;2022-12-01T16:42:15;21.20;;;9.90;;
42096;SDS011;27754;45.414;11.084;2022-12-01T16:44:43;17.50;;;9.63;;
42096;SDS011;27754;45.414;11.084;2022-12-01T16:47:33;17.02;;;10.73;;
42096;SDS011;27754;45.414;11.084;2022-12-01T16:49:59;17.55;;;10.98;;
42096;SDS011;27754;45.414;11.084;2022-12-01T16:52:26;18.20;;;11.23;;
42096;SDS011;27754;45.414;11.084;2022-12-01T16:57:59;20.05;;;12.57;;
42096;SDS011;27754;45.414;11.084;2022-12-01T17:00:25;18.40;;;12.23;;